Time;durP1;ratioP1;P1;durP2;ratioP2;P2;SDS_P1;SDS_P2;PMS_P1;PMS_P2;Temp;Humidity;BMP_temperature;BMP_pressure;BME280_temperature;BME280_humidity;BME280_pressure;Samples;Min_cycle;Max_cycle;Signal;HPM_P1;HPM_P2
2024/03/09 00:00:42;;;;;;;16.15;10.75;;;8.10;88.70;;;;;;4988688;28;20025;-73
2024/03/09 00:03:12;;;;;;;18.05;11.20;;;8.20;88.30;;;;;;5000774;28;20480;-74
2024/03/09 00:05:41;;;;;;;17.13;11.68;;;8.20;88.50;;;;;;5016897;28;20489;-73
2024/03/09 00:08:10;;;;;;;16.60;11.57;;;8.10;88.80;;;;;;5015262;28;20484;-72
2024/03/09 00:10:38;;;;;;;15.95;11.63;;;8.00;89.20;;;;;;4994078;28;20095;-73
2024/03/09 00:13:09;;;;;;;24.17;16.85;;;7.80;89.50;;;;;;5015930;28;20040;-74
2024/03/09 00:15:41;;;;;;;23.10;14.68;;;7.90;90.40;;;;;;5014622;28;20064;-73
2024/03/09 00:18:10;;;;;;;21.30;13.75;;;8.00;90.20;;;;;;5011917;28;20381;-72
2024/03/09 00:20:38;;;;;;;21.00;12.82;;;8.00;90.10;;;;;;5015495;28;20043;-73
2024/03/09 00:23:09;;;;;;;19.27;12.45;;;8.00;90.10;;;;;;5011658;28;20116;-70
2024/03/09 00:25:37;;;;;;;16.75;11.48;;;7.80;90.30;;;;;;5003897;28;20425;-75
2024/03/09 00:28:06;;;;;;;20.58;13.32;;;7.70;90.60;;;;;;5003625;28;20101;-74
2024/03/09 00:30:35;;;;;;;19.83;12.80;;;7.80;90.40;;;;;;4989552;28;20113;-75
2024/03/09 00:33:05;;;;;;;17.15;12.40;;;7.70;90.60;;;;;;5017241;28;20034;-71
2024/03/09 00:35:35;;;;;;;20.60;12.95;;;7.70;90.90;;;;;;5013564;28;20069;-74
2024/03/09 00:38:03;;;;;;;20.48;13.95;;;7.70;90.60;;;;;;5012977;28;20026;-75
2024/03/09 00:40:32;;;;;;;26.90;18.93;;;7.70;90.60;;;;;;4986858;28;20042;-73
2024/03/09 00:43:06;;;;;;;212.43;110.30;;;7.80;90.60;;;;;;4993395;28;20038;-72
2024/03/09 00:45:35;;;;;;;89.20;51.70;;;8.00;90.80;;;;;;4993752;28;20106;-72
2024/03/09 00:48:05;;;;;;;48.60;32.90;;;8.30;90.20;;;;;;4984446;28;20045;-72
2024/03/09 00:50:33;;;;;;;24.83;18.00;;;8.40;89.50;;;;;;5003260;28;20029;-74
2024/03/09 00:53:00;;;;;;;22.83;16.10;;;8.30;89.00;;;;;;4999360;28;20037;-73
2024/03/09 00:55:28;;;;;;;29.40;15.15;;;8.20;89.40;;;;;;5004622;28;20034;-73
2024/03/09 00:57:56;;;;;;;21.55;14.38;;;8.20;89.40;;;;;;4982049;28;20039;-74
2024/03/09 01:00:24;;;;;;;19.58;14.20;;;8.00;89.90;;;;;;5013658;28;20377;-71
2024/03/09 01:02:52;;;;;;;21.38;14.25;;;7.80;90.40;;;;;;4998851;28;20132;-73
2024/03/09 01:05:22;;;;;;;20.00;13.95;;;7.80;90.10;;;;;;5014292;28;20064;-75
2024/03/09 01:07:51;;;;;;;;;;;7.50;90.80;;;;;;5016250;28;20113;-73
2024/03/09 01:10:19;;;;;;;21.17;14.35;;;7.60;90.90;;;;;;4985628;28;20283;-73
2024/03/09 01:12:47;;;;;;;22.17;13.75;;;7.80;90.60;;;;;;4996411;28;20086;-74
2024/03/09 01:15:16;;;;;;;22.38;13.40;;;7.90;90.30;;;;;;5016302;28;20095;-73
2024/03/09 01:17:44;;;;;;;22.08;14.45;;;7.40;90.50;;;;;;5001816;28;20116;-72
2024/03/09 01:20:12;;;;;;;19.63;13.70;;;7.50;91.00;;;;;;5001065;28;20053;-72
2024/03/09 01:22:41;;;;;;;19.52;14.18;;;7.50;90.60;;;;;;5011022;28;20036;-72
2024/03/09 01:25:10;;;;;;;16.27;12.65;;;7.40;90.70;;;;;;5014630;28;20365;-75
2024/03/09 01:27:41;;;;;;;19.52;13.18;;;7.10;90.80;;;;;;5010358;28;20101;-71
2024/03/09 01:30:11;;;;;;;17.98;12.77;;;6.70;91.80;;;;;;5014886;28;20380;-72
2024/03/09 01:32:40;;;;;;;;;;;6.80;91.70;;;;;;5011952;28;20049;-74
2024/03/09 01:35:08;;;;;;;17.50;11.63;;;6.40;92.00;;;;;;5016690;28;20288;-72
2024/03/09 01:37:37;;;;;;;17.23;11.40;;;6.20;92.60;;;;;;5017116;28;20053;-74
2024/03/09 01:40:06;;;;;;;17.40;10.68;;;6.10;92.70;;;;;;5000443;28;20098;-72
2024/03/09 01:42:37;;;;;;;14.15;10.82;;;6.20;92.20;;;;;;4997636;28;20094;-74
2024/03/09 01:45:05;;;;;;;16.30;11.75;;;6.10;92.40;;;;;;4991701;28;20598;-72
2024/03/09 01:47:33;;;;;;;14.23;10.57;;;6.30;92.30;;;;;;4991886;28;20418;-74
2024/03/09 01:50:02;;;;;;;15.85;11.00;;;6.10;92.60;;;;;;4995106;28;20061;-73
2024/03/09 01:52:31;;;;;;;12.85;10.85;;;6.50;92.50;;;;;;4997550;28;20038;-73
2024/03/09 01:55:04;;;;;;;14.50;10.70;;;6.70;91.90;;;;;;5018210;28;20091;-72
2024/03/09 01:57:35;;;;;;;14.40;11.23;;;7.00;91.50;;;;;;5017992;28;20180;-74
2024/03/09 02:00:03;;;;;;;14.77;11.25;;;7.20;91.20;;;;;;4996427;28;20458;-72
2024/03/09 02:02:32;;;;;;;15.00;11.23;;;7.30;90.80;;;;;;4997360;28;20041;-74
2024/03/09 02:05:10;;;;;;;16.30;10.75;;;7.40;90.70;;;;;;4995727;28;20742;-72
2024/03/09 02:07:40;;;;;;;15.25;11.07;;;7.40;90.40;;;;;;5015035;28;20034;-70
2024/03/09 02:10:11;;;;;;;15.00;11.63;;;7.20;90.90;;;;;;5004953;28;20473;-73
2024/03/09 02:12:42;;;;;;;13.73;10.85;;;7.40;90.90;;;;;;4991633;28;20068;-72
2024/03/09 02:15:17;;;;;;;15.02;10.88;;;7.50;90.70;;;;;;4993796;28;20030;-73
2024/03/09 02:17:47;;;;;;;16.70;10.82;;;7.50;90.60;;;;;;4996475;28;20038;-74
2024/03/09 02:20:17;;;;;;;16.75;11.50;;;7.50;90.70;;;;;;5000068;28;20094;-74
2024/03/09 02:22:46;;;;;;;13.25;11.30;;;7.50;90.70;;;;;;4997477;28;20552;-74
2024/03/09 02:25:16;;;;;;;14.40;10.75;;;7.30;90.80;;;;;;5010821;28;20037;-73
2024/03/09 02:27:46;;;;;;;16.30;11.77;;;7.40;91.10;;;;;;5011475;28;20872;-72
2024/03/09 02:30:15;;;;;;;16.33;11.98;;;7.40;91.00;;;;;;4972225;28;20130;-73
2024/03/09 02:32:42;;;;;;;14.18;11.68;;;7.40;91.00;;;;;;5014771;28;20041;-73
2024/03/09 02:35:11;;;;;;;16.45;11.45;;;7.60;90.70;;;;;;5015433;28;20508;-75
2024/03/09 02:37:39;;;;;;;17.98;12.05;;;7.70;90.50;;;;;;5005634;28;20038;-76
2024/03/09 02:40:07;;;;;;;14.90;11.68;;;7.80;90.30;;;;;;4990390;28;20033;-74
2024/03/09 02:42:38;;;;;;;14.63;11.90;;;7.80;90.20;;;;;;5010946;28;20358;-74
2024/03/09 02:45:07;;;;;;;20.88;11.48;;;7.80;90.10;;;;;;5017601;28;20151;-74
2024/03/09 02:47:34;;;;;;;15.15;11.55;;;7.80;90.10;;;;;;5009024;28;20029;-73
2024/03/09 02:50:03;;;;;;;15.77;12.02;;;7.80;90.00;;;;;;4994818;28;20066;-74
2024/03/09 02:52:31;;;;;;;18.58;11.70;;;7.70;90.20;;;;;;5008147;28;20030;-73
2024/03/09 02:55:00;;;;;;;19.88;12.07;;;7.70;90.30;;;;;;4994357;28;20042;-72
2024/03/09 02:57:28;;;;;;;17.60;11.88;;;7.70;90.20;;;;;;5013064;28;20034;-71
2024/03/09 02:59:55;;;;;;;12.20;10.70;;;7.60;90.30;;;;;;4994098;28;20109;-72
2024/03/09 03:05:09;;;;;;;15.23;11.18;;;7.20;90.80;;;;;;5008675;28;20118;-71
2024/03/09 03:07:36;;;;;;;16.23;11.63;;;7.10;90.90;;;;;;4991397;28;20036;-71
2024/03/09 03:10:05;;;;;;;14.73;12.55;;;7.00;91.00;;;;;;5013654;28;20048;-73
2024/03/09 03:12:32;;;;;;;14.75;11.73;;;6.80;91.60;;;;;;5011157;28;20038;-72
2024/03/09 03:15:01;;;;;;;12.88;10.80;;;6.90;91.70;;;;;;5016156;28;20037;-74
2024/03/09 03:17:29;;;;;;;17.23;11.50;;;7.00;91.60;;;;;;5010029;28;20039;-72
2024/03/09 03:19:56;;;;;;;17.02;11.85;;;6.90;91.40;;;;;;4998535;28;20074;-71
2024/03/09 03:22:24;;;;;;;20.77;12.88;;;6.50;92.30;;;;;;5011646;28;20035;-73
2024/03/09 03:24:51;;;;;;;16.88;12.13;;;6.30;92.90;;;;;;5016027;28;20354;-72
2024/03/09 03:27:19;;;;;;;19.75;11.88;;;6.20;93.10;;;;;;5013058;28;20116;-72
2024/03/09 03:29:48;;;;;;;14.90;11.95;;;6.40;92.70;;;;;;5021890;28;20665;-74
2024/03/09 03:32:16;;;;;;;16.13;11.98;;;6.50;92.50;;;;;;5013798;28;20421;-71
2024/03/09 03:34:43;;;;;;;13.48;11.38;;;6.50;92.80;;;;;;4999913;28;20037;-71
2024/03/09 03:37:11;;;;;;;16.65;12.25;;;6.70;92.30;;;;;;5010582;28;20042;-72
2024/03/09 03:39:39;;;;;;;18.40;12.55;;;6.70;92.00;;;;;;5006357;28;20449;-74
2024/03/09 03:42:06;;;;;;;15.60;11.02;;;6.50;92.40;;;;;;5020787;28;20037;-71
2024/03/09 03:44:35;;;;;;;14.75;11.98;;;6.60;92.40;;;;;;5003588;28;20041;-71
2024/03/09 03:47:03;;;;;;;15.90;13.10;;;6.70;92.10;;;;;;4998237;28;20049;-72
2024/03/09 03:49:31;;;;;;;15.35;12.25;;;6.60;92.40;;;;;;4985482;28;20059;-73
2024/03/09 03:51:59;;;;;;;19.02;12.32;;;6.70;92.30;;;;;;5015863;28;20114;-72
2024/03/09 03:54:26;;;;;;;15.98;11.73;;;6.70;92.30;;;;;;4995125;28;20038;-71
2024/03/09 03:56:54;;;;;;;17.08;12.55;;;6.70;92.60;;;;;;5018819;28;20042;-72
2024/03/09 03:59:21;;;;;;;15.13;12.48;;;7.00;92.30;;;;;;5013384;28;20035;-74
2024/03/09 04:01:49;;;;;;;15.70;12.50;;;7.10;91.70;;;;;;4998288;28;20038;-73
2024/03/09 04:04:17;;;;;;;15.77;12.10;;;6.90;92.40;;;;;;4996148;28;20038;-72
2024/03/09 04:06:44;;;;;;;18.98;12.18;;;7.00;92.00;;;;;;5017740;28;20116;-72
2024/03/09 04:09:14;;;;;;;15.63;12.02;;;6.80;92.20;;;;;;5016348;28;20567;-73
2024/03/09 04:11:43;;;;;;;17.67;12.90;;;7.00;92.20;;;;;;5012095;28;20033;-74
2024/03/09 04:14:11;;;;;;;15.15;12.50;;;6.90;92.10;;;;;;5011265;28;20038;-72
2024/03/09 04:16:39;;;;;;;17.35;12.70;;;7.00;92.20;;;;;;5000821;28;20030;-71
2024/03/09 04:19:07;;;;;;;18.42;12.00;;;7.20;92.00;;;;;;5014193;28;20396;-69
2024/03/09 04:21:34;;;;;;;16.10;11.82;;;7.30;91.70;;;;;;5019576;28;20116;-72
2024/03/09 04:24:03;;;;;;;19.40;12.85;;;7.50;91.50;;;;;;4989036;28;20038;-72
2024/03/09 04:26:30;;;;;;;15.80;11.70;;;7.60;91.10;;;;;;5016691;28;20046;-72
2024/03/09 04:29:01;;;;;;;16.88;12.25;;;7.70;91.00;;;;;;5019306;28;20057;-75
2024/03/09 04:31:32;;;;;;;15.77;12.68;;;7.70;91.10;;;;;;4996987;28;20033;-72
2024/03/09 04:34:03;;;;;;;16.70;12.18;;;7.80;90.80;;;;;;5016366;28;20056;-73
2024/03/09 04:36:30;;;;;;;15.50;12.02;;;7.80;90.50;;;;;;5018381;28;20029;-72
2024/03/09 04:39:00;;;;;;;15.25;12.75;;;7.80;90.60;;;;;;4997956;28;20038;-73
2024/03/09 04:41:28;;;;;;;19.45;12.45;;;7.90;90.60;;;;;;5015714;28;20031;-72
2024/03/09 04:43:56;;;;;;;15.13;11.73;;;7.80;90.70;;;;;;4995086;28;20041;-73
2024/03/09 04:46:23;;;;;;;18.42;12.48;;;7.90;90.60;;;;;;4993679;28;20042;-72
2024/03/09 04:48:51;;;;;;;16.63;11.23;;;7.80;90.70;;;;;;5016441;28;20099;-74
2024/03/09 04:51:18;;;;;;;15.50;11.98;;;7.80;90.80;;;;;;5013636;28;20066;-72
2024/03/09 04:53:46;;;;;;;18.15;11.65;;;7.80;90.80;;;;;;5014164;28;20041;-73
2024/03/09 04:56:14;;;;;;;16.17;11.73;;;7.90;90.70;;;;;;5015657;28;20034;-72
2024/03/09 04:58:42;;;;;;;14.65;11.23;;;8.00;90.50;;;;;;5015823;28;20402;-73
2024/03/09 05:01:10;;;;;;;15.60;11.35;;;7.90;90.50;;;;;;5007115;28;20044;-72
2024/03/09 05:03:37;;;;;;;15.02;10.52;;;7.50;90.90;;;;;;5014124;28;20026;-73
2024/03/09 05:06:06;;;;;;;13.63;11.23;;;7.30;91.40;;;;;;4998276;28;20488;-73
2024/03/09 05:08:33;;;;;;;17.20;11.35;;;6.90;91.80;;;;;;5001177;28;20038;-74
2024/03/09 05:11:00;;;;;;;14.77;10.50;;;6.70;92.60;;;;;;5019501;28;20588;-73
2024/03/09 05:13:28;;;;;;;13.55;11.20;;;6.50;92.80;;;;;;4997219;28;20616;-71
2024/03/09 05:15:56;;;;;;;17.83;11.43;;;6.30;93.30;;;;;;5013151;28;20408;-73
2024/03/09 05:18:24;;;;;;;16.13;11.52;;;6.30;93.50;;;;;;5018028;28;20138;-72
2024/03/09 05:20:51;;;;;;;16.45;11.80;;;6.20;93.70;;;;;;4980904;28;20052;-72
2024/03/09 05:23:19;;;;;;;13.65;11.23;;;6.50;93.70;;;;;;4996367;28;20116;-72
2024/03/09 05:25:46;;;;;;;17.02;11.80;;;7.00;92.70;;;;;;4995531;28;20052;-69
2024/03/09 05:28:15;;;;;;;15.35;11.20;;;7.10;92.20;;;;;;5016894;28;20049;-70
2024/03/09 05:30:43;;;;;;;13.38;10.90;;;7.00;92.00;;;;;;5004777;28;20549;-71
2024/03/09 05:33:11;;;;;;;13.70;10.93;;;7.10;92.30;;;;;;5008063;28;20082;-71
2024/03/09 05:35:40;;;;;;;14.98;11.57;;;7.20;92.20;;;;;;5001423;28;20117;-73
2024/03/09 05:38:08;;;;;;;15.63;11.18;;;7.40;91.80;;;;;;5018414;28;20529;-71
2024/03/09 05:40:37;;;;;;;16.15;11.02;;;7.60;91.50;;;;;;5009838;28;20045;-71
2024/03/09 05:43:09;;;;;;;15.80;11.32;;;7.60;91.30;;;;;;5001261;28;20037;-71
2024/03/09 05:45:37;;;;;;;13.50;10.93;;;7.60;91.30;;;;;;5013263;28;20116;-72
2024/03/09 05:48:05;;;;;;;14.77;11.75;;;7.60;91.20;;;;;;5012571;28;20038;-72
2024/03/09 05:50:35;;;;;;;16.15;11.70;;;7.70;91.20;;;;;;5000109;28;20037;-74
2024/03/09 05:53:04;;;;;;;18.23;11.73;;;7.80;91.10;;;;;;4997978;28;20034;-72
2024/03/09 05:55:32;;;;;;;16.75;11.15;;;7.90;90.90;;;;;;5014461;28;20418;-69
2024/03/09 05:58:00;;;;;;;18.38;11.70;;;8.00;90.90;;;;;;5008661;28;20041;-73
2024/03/09 06:00:29;;;;;;;18.65;11.68;;;8.20;90.70;;;;;;5015282;28;20045;-73
2024/03/09 06:03:02;;;;;;;16.08;12.02;;;8.20;90.80;;;;;;5011356;28;20048;-73
2024/03/09 06:05:30;;;;;;;17.42;12.20;;;8.40;90.80;;;;;;5017284;28;20108;-72
2024/03/09 06:08:01;;;;;;;14.05;10.30;;;8.40;90.60;;;;;;5016472;28;20042;-71
2024/03/09 06:10:30;;;;;;;13.20;10.52;;;8.50;90.70;;;;;;5011433;28;20037;-71
2024/03/09 06:12:58;;;;;;;15.57;11.40;;;8.40;90.50;;;;;;4994764;28;20121;-72
2024/03/09 06:15:27;;;;;;;17.38;11.73;;;8.30;90.30;;;;;;4996612;28;20064;-72
2024/03/09 06:17:58;;;;;;;16.45;11.70;;;8.30;90.50;;;;;;5013923;28;20121;-73
2024/03/09 06:20:27;;;;;;;18.75;11.40;;;8.30;90.50;;;;;;5015663;28;20029;-72
2024/03/09 06:22:56;;;;;;;15.05;10.75;;;8.40;90.50;;;;;;5002213;28;20042;-74
2024/03/09 06:25:25;;;;;;;18.58;12.10;;;8.60;90.30;;;;;;5013729;28;20041;-72
2024/03/09 06:27:59;;;;;;;16.33;11.90;;;8.70;90.40;;;;;;5016014;28;20044;-74
2024/03/09 06:30:27;;;;;;;18.67;11.50;;;8.80;90.00;;;;;;5013130;28;20066;-70
2024/03/09 06:32:59;;;;;;;17.30;12.50;;;8.90;89.80;;;;;;5014596;28;20034;-73
2024/03/09 06:35:31;;;;;;;18.55;12.98;;;8.90;89.60;;;;;;5016689;28;20120;-71
2024/03/09 06:38:04;;;;;;;23.48;12.60;;;8.90;89.50;;;;;;5014218;28;20033;-68
2024/03/09 06:40:39;;;;;;;23.23;13.32;;;8.90;89.50;;;;;;5013574;28;20528;-72
2024/03/09 06:43:11;;;;;;;20.33;12.52;;;9.10;89.60;;;;;;5013943;28;20054;-72
2024/03/09 06:45:39;;;;;;;21.52;13.10;;;9.00;89.90;;;;;;5011559;28;20041;-71
2024/03/09 06:48:08;;;;;;;21.55;13.73;;;9.00;89.80;;;;;;4994746;28;20052;-70
2024/03/09 06:50:43;;;;;;;23.13;13.43;;;8.90;89.40;;;;;;5008150;28;20041;-71
2024/03/09 06:53:12;;;;;;;26.27;13.02;;;9.00;89.60;;;;;;5017734;28;20057;-72
2024/03/09 06:55:40;;;;;;;20.38;13.00;;;9.10;89.70;;;;;;5002504;28;20373;-73
2024/03/09 06:58:07;;;;;;;21.95;13.10;;;8.80;89.40;;;;;;4997741;28;21401;-73
2024/03/09 07:00:34;;;;;;;26.30;14.73;;;9.10;89.30;;;;;;5006311;28;20038;-72
2024/03/09 07:03:04;;;;;;;24.55;14.18;;;9.20;89.10;;;;;;5013125;28;20044;-71
2024/03/09 07:05:36;;;;;;;42.22;17.67;;;8.90;89.20;;;;;;5012527;28;20041;-72
2024/03/09 07:08:09;;;;;;;25.23;14.93;;;8.40;90.70;;;;;;5012909;28;20034;-72
2024/03/09 07:10:37;;;;;;;21.55;14.07;;;8.80;90.10;;;;;;5008837;28;20119;-72
2024/03/09 07:13:05;;;;;;;28.05;14.50;;;8.70;90.30;;;;;;5005908;28;20038;-72
2024/03/09 07:15:32;;;;;;;21.98;13.85;;;8.70;89.30;;;;;;4985151;28;20050;-70
2024/03/09 07:18:00;;;;;;;27.77;14.30;;;8.90;90.10;;;;;;5010067;28;20064;-72
2024/03/09 07:20:28;;;;;;;27.77;13.68;;;9.40;88.60;;;;;;4995434;28;20045;-73
2024/03/09 07:22:56;;;;;;;37.55;18.58;;;9.50;87.90;;;;;;5000600;28;20038;-72
2024/03/09 07:25:26;;;;;;;43.65;20.73;;;9.60;87.70;;;;;;5009184;28;20039;-71
2024/03/09 07:27:59;;;;;;;50.63;21.85;;;9.20;87.60;;;;;;5011972;28;20039;-70
2024/03/09 07:30:28;;;;;;;44.67;21.75;;;9.10;88.80;;;;;;5018228;28;20048;-71
2024/03/09 07:32:55;;;;;;;43.85;22.77;;;9.20;88.80;;;;;;5012654;28;20056;-71
2024/03/09 07:35:33;;;;;;;41.10;19.65;;;9.50;88.20;;;;;;5010798;28;20037;-71
2024/03/09 07:38:03;;;;;;;38.83;18.63;;;9.70;87.70;;;;;;5008787;28;20106;-70
2024/03/09 07:40:32;;;;;;;31.27;18.53;;;9.80;87.70;;;;;;4993767;28;20103;-70
2024/03/09 07:43:00;;;;;;;30.17;17.70;;;9.60;88.00;;;;;;5013029;28;20528;-70
2024/03/09 07:45:29;;;;;;;32.35;17.67;;;9.60;87.40;;;;;;4996441;28;20476;-72
2024/03/09 07:47:58;;;;;;;29.10;16.95;;;9.60;88.10;;;;;;5007175;28;20620;-75
2024/03/09 07:50:27;;;;;;;45.90;27.00;;;9.90;87.70;;;;;;5014735;28;20110;-75
2024/03/09 07:52:56;;;;;;;151.07;72.93;;;10.10;87.10;;;;;;4989239;28;20072;-73
2024/03/09 07:55:27;;;;;;;121.20;67.45;;;10.50;86.30;;;;;;4995322;28;20441;-75
2024/03/09 07:57:59;;;;;;;202.63;106.55;;;10.70;85.70;;;;;;5008832;28;20035;-72
2024/03/09 08:00:48;;;;;;;;;;;10.90;85.40;;;;;;5007314;28;20362;-70
2024/03/09 08:03:17;;;;;;;36.10;22.88;;;10.80;85.00;;;;;;5000475;28;19917;-70
2024/03/09 08:05:44;;;;;;;29.35;17.42;;;10.90;85.20;;;;;;4980766;28;20046;-69
2024/03/09 08:08:12;;;;;;;31.05;16.17;;;10.00;86.80;;;;;;4991851;28;20057;-73
2024/03/09 08:10:46;;;;;;;26.65;16.00;;;10.40;87.40;;;;;;5020211;28;20039;-73
2024/03/09 08:13:19;;;;;;;31.27;16.17;;;11.00;85.80;;;;;;5008093;28;20038;-71
2024/03/09 08:15:48;;;;;;;27.38;15.23;;;11.20;84.80;;;;;;4991069;28;20040;-72
2024/03/09 08:18:15;;;;;;;29.33;15.05;;;11.20;84.10;;;;;;4986632;28;20049;-71
2024/03/09 08:20:44;;;;;;;26.73;15.20;;;10.90;85.30;;;;;;5009560;28;20038;-72
2024/03/09 08:23:12;;;;;;;26.00;14.65;;;10.50;87.00;;;;;;5010798;28;20040;-72
2024/03/09 08:25:41;;;;;;;28.67;15.10;;;10.60;87.00;;;;;;4989472;28;20057;-73
2024/03/09 08:28:09;;;;;;;28.35;15.23;;;10.70;86.90;;;;;;4990225;28;20056;-72
2024/03/09 08:30:38;;;;;;;35.72;16.17;;;10.80;87.50;;;;;;4991673;28;20034;-74
2024/03/09 08:33:05;;;;;;;26.90;15.18;;;10.90;87.50;;;;;;4967986;28;20054;-68
2024/03/09 08:35:33;;;;;;;30.75;16.23;;;10.80;86.80;;;;;;5012265;28;20026;-71
2024/03/09 08:38:01;;;;;;;36.42;16.90;;;10.80;88.20;;;;;;5015540;28;20037;-70
2024/03/09 08:40:32;;;;;;;32.17;16.52;;;11.10;87.10;;;;;;5015866;28;20134;-70
2024/03/09 08:43:00;;;;;;;26.48;13.57;;;11.30;86.40;;;;;;5010537;28;20037;-71
2024/03/09 08:45:57;;;;;;;29.05;13.20;;;11.40;86.60;;;;;;5009278;28;20046;-71
2024/03/09 08:48:26;;;;;;;15.70;10.85;;;11.50;87.10;;;;;;4991584;28;20045;-71
2024/03/09 08:50:54;;;;;;;17.73;11.70;;;11.30;88.10;;;;;;4994869;28;20062;-70
2024/03/09 08:53:21;;;;;;;15.82;10.77;;;11.40;88.20;;;;;;4992146;28;20039;-71
2024/03/09 08:55:49;;;;;;;16.10;10.80;;;11.40;88.00;;;;;;4991513;28;20099;-75
2024/03/09 08:58:16;;;;;;;16.95;10.95;;;11.40;88.60;;;;;;4993432;28;20035;-73
2024/03/09 09:00:44;;;;;;;18.42;11.27;;;11.60;88.10;;;;;;4987879;28;20076;-72
2024/03/09 09:03:14;;;;;;;15.93;11.43;;;11.60;88.40;;;;;;4997562;28;20146;-73
2024/03/09 09:05:42;;;;;;;13.30;9.82;;;11.60;88.70;;;;;;4994517;28;20030;-72
2024/03/09 09:08:17;;;;;;;14.70;10.20;;;11.50;89.30;;;;;;4989206;28;20125;-72
2024/03/09 09:10:44;;;;;;;11.13;8.77;;;11.50;89.30;;;;;;4999352;28;20034;-70
2024/03/09 09:13:13;;;;;;;13.18;9.50;;;11.60;89.00;;;;;;5007013;28;20446;-70
2024/03/09 09:15:42;;;;;;;16.65;9.20;;;11.60;89.20;;;;;;4972808;28;20741;-72
2024/03/09 09:18:09;;;;;;;19.02;13.02;;;11.70;89.70;;;;;;4994484;28;20431;-73
2024/03/09 09:20:40;;;;;;;31.55;18.27;;;11.70;89.80;;;;;;4997658;28;20039;-73
2024/03/09 09:23:10;;;;;;;66.88;40.08;;;11.70;90.20;;;;;;4997300;28;20106;-74
2024/03/09 09:25:41;;;;;;;;;;;11.90;89.90;;;;;;4985874;28;20054;-72
2024/03/09 09:28:10;;;;;;;14.13;9.00;;;11.60;89.90;;;;;;4984266;28;20405;-74
2024/03/09 09:30:37;;;;;;;10.27;8.10;;;11.60;90.10;;;;;;4994991;28;20474;-71
2024/03/09 09:33:06;;;;;;;13.27;7.97;;;11.50;90.30;;;;;;4992852;28;20050;-72
2024/03/09 09:35:35;;;;;;;13.13;7.97;;;11.80;90.00;;;;;;4999526;28;20064;-72
2024/03/09 09:38:04;;;;;;;12.27;8.68;;;12.00;90.10;;;;;;4996859;28;20153;-72
2024/03/09 09:40:32;;;;;;;13.73;8.68;;;12.20;89.60;;;;;;4987364;28;20037;-73
2024/03/09 09:43:05;;;;;;;13.55;9.13;;;12.20;88.70;;;;;;4998602;28;20073;-75
2024/03/09 09:45:38;;;;;;;14.77;8.80;;;12.30;88.80;;;;;;4999685;28;20054;-73
2024/03/09 09:48:06;;;;;;;13.13;8.23;;;12.40;88.40;;;;;;4992108;28;20031;-72
2024/03/09 09:50:36;;;;;;;12.60;8.15;;;12.40;88.30;;;;;;4999104;28;20033;-71
2024/03/09 09:53:09;;;;;;;14.40;8.70;;;12.50;88.00;;;;;;5014515;28;20400;-72
2024/03/09 09:55:37;;;;;;;10.18;7.82;;;12.30;88.60;;;;;;4994849;28;20042;-72
2024/03/09 09:58:05;;;;;;;14.60;8.85;;;12.50;88.00;;;;;;5000262;28;20041;-70
2024/03/09 10:00:33;;;;;;;11.73;8.43;;;12.50;87.90;;;;;;4992211;28;20046;-71
2024/03/09 10:03:01;;;;;;;12.50;8.70;;;12.20;88.30;;;;;;5017422;28;20384;-75
2024/03/09 10:05:29;;;;;;;14.38;9.13;;;11.90;89.10;;;;;;4997038;28;20025;-71
2024/03/09 10:08:14;;;;;;;142.60;75.63;;;12.00;89.00;;;;;;5008066;28;20033;-72
2024/03/09 10:10:47;;;;;;;18.65;15.15;;;12.20;89.00;;;;;;5012883;28;20075;-71
2024/03/09 10:13:17;;;;;;;12.52;9.38;;;12.40;88.30;;;;;;4990728;28;20113;-72
2024/03/09 10:15:49;;;;;;;11.55;9.07;;;12.50;87.60;;;;;;4997503;28;20038;-71
2024/03/09 10:18:16;;;;;;;98.95;54.15;;;12.80;88.20;;;;;;4991572;28;20420;-71
2024/03/09 10:20:45;;;;;;;17.42;13.68;;;13.30;86.40;;;;;;4983410;28;20049;-72
2024/03/09 10:23:13;;;;;;;14.15;10.40;;;13.50;84.70;;;;;;4985007;28;20122;-72
2024/03/09 10:25:42;;;;;;;12.45;8.93;;;13.30;84.90;;;;;;5008280;28;20037;-71
2024/03/09 10:28:10;;;;;;;10.43;8.05;;;13.30;84.50;;;;;;4999845;28;20145;-71
2024/03/09 10:30:40;;;;;;;14.07;8.40;;;13.40;84.90;;;;;;5018531;28;20156;-73
2024/03/09 10:33:13;;;;;;;12.52;8.73;;;13.30;85.30;;;;;;4994383;28;20111;-70
2024/03/09 10:35:44;;;;;;;11.30;7.85;;;13.30;85.00;;;;;;5015615;28;20043;-71
2024/03/09 10:38:12;;;;;;;9.80;7.78;;;13.30;84.70;;;;;;4992042;28;20051;-71
2024/03/09 10:40:41;;;;;;;13.00;8.35;;;13.40;84.80;;;;;;5011288;28;20094;-71
2024/03/09 10:43:13;;;;;;;13.68;9.00;;;13.70;84.60;;;;;;5013932;28;20030;-72
2024/03/09 10:45:44;;;;;;;12.45;8.40;;;14.10;83.40;;;;;;5010769;28;20125;-72
2024/03/09 10:48:12;;;;;;;11.13;8.10;;;14.40;82.70;;;;;;5008367;28;20136;-71
2024/03/09 10:50:54;;;;;;;11.52;8.52;;;14.50;82.30;;;;;;4994781;28;20041;-72
2024/03/09 10:53:54;;;;;;;11.85;8.85;;;14.30;82.60;;;;;;5010294;28;20680;-71
2024/03/09 10:56:23;;;;;;;11.63;8.82;;;14.00;83.10;;;;;;5014521;28;20052;-71
2024/03/09 10:58:52;;;;;;;11.52;8.43;;;13.70;83.90;;;;;;5005937;28;20034;-69
2024/03/09 11:01:21;;;;;;;12.45;8.27;;;13.60;83.60;;;;;;5005493;28;20405;-71
2024/03/09 11:03:50;;;;;;;11.93;8.73;;;13.90;83.30;;;;;;5005944;28;20029;-70
2024/03/09 11:06:19;;;;;;;11.10;8.27;;;13.90;82.70;;;;;;5000964;28;20041;-72
2024/03/09 11:08:51;;;;;;;11.88;7.68;;;13.90;83.10;;;;;;4991599;28;20427;-70
2024/03/09 11:11:21;;;;;;;9.98;7.40;;;13.90;83.20;;;;;;4999083;28;20381;-71
2024/03/09 11:13:48;;;;;;;10.43;7.07;;;14.10;83.00;;;;;;5005602;28;20106;-72
2024/03/09 11:16:24;;;;;;;10.57;7.15;;;14.60;81.30;;;;;;4995963;28;20282;-71
2024/03/09 11:18:56;;;;;;;9.93;6.95;;;14.60;81.40;;;;;;5002694;28;20037;-72
2024/03/09 11:21:26;;;;;;;9.73;7.03;;;14.90;80.50;;;;;;5015547;28;20034;-74
2024/03/09 11:24:07;;;;;;;10.30;7.28;;;14.60;80.40;;;;;;4974344;28;20389;-71
2024/03/09 11:26:41;;;;;;;8.50;6.75;;;14.60;81.30;;;;;;4999730;28;20113;-71
2024/03/09 11:29:13;;;;;;;8.60;6.72;;;14.20;80.50;;;;;;5015727;28;20038;-74
2024/03/09 11:31:42;;;;;;;11.13;7.22;;;14.10;81.70;;;;;;4988068;28;20050;-71
2024/03/09 11:34:23;;;;;;;83.53;48.17;;;14.10;82.20;;;;;;5005432;28;20042;-70
2024/03/09 11:37:00;;;;;;;88.30;54.78;;;14.40;83.00;;;;;;5009335;28;20040;-71
2024/03/09 11:39:31;;;;;;;14.07;12.27;;;15.20;80.60;;;;;;5015006;28;20076;-71
2024/03/09 11:42:00;;;;;;;9.95;7.60;;;15.30;79.20;;;;;;5008272;28;20037;-72
2024/03/09 11:44:39;;;;;;;60.63;32.53;;;14.90;78.60;;;;;;5016735;28;20454;-71
2024/03/09 11:47:07;;;;;;;190.35;101.40;;;15.50;78.80;;;;;;5011757;28;20377;-71
2024/03/09 11:49:36;;;;;;;23.23;17.10;;;15.90;76.50;;;;;;4998387;28;20062;-72
2024/03/09 11:52:07;;;;;;;12.02;8.48;;;15.80;75.70;;;;;;5013164;28;20377;-72
2024/03/09 11:54:39;;;;;;;7.40;5.40;;;15.80;75.70;;;;;;5012853;28;20034;-74
2024/03/09 11:57:08;;;;;;;10.13;6.38;;;16.00;74.70;;;;;;5018873;28;20049;-72
2024/03/09 11:59:36;;;;;;;9.85;6.32;;;16.70;73.60;;;;;;5014504;28;20079;-72
2024/03/09 12:02:07;;;;;;;9.75;6.05;;;17.30;72.00;;;;;;5013940;28;20055;-71
2024/03/09 12:04:36;;;;;;;9.60;5.75;;;16.80;70.60;;;;;;4997847;28;20037;-72
2024/03/09 12:07:08;;;;;;;6.05;4.88;;;16.50;72.20;;;;;;4997582;28;20063;-71
2024/03/09 12:09:44;;;;;;;6.97;4.90;;;16.30;70.10;;;;;;5000609;28;20477;-71
2024/03/09 12:12:14;;;;;;;9.18;5.93;;;15.80;71.40;;;;;;5021727;28;20586;-74
2024/03/09 12:14:43;;;;;;;7.97;5.63;;;15.10;74.90;;;;;;5012913;28;20111;-74
2024/03/09 12:17:11;;;;;;;8.02;5.32;;;14.80;76.10;;;;;;5016784;28;20034;-73
2024/03/09 12:19:40;;;;;;;7.50;5.28;;;14.70;75.80;;;;;;5014299;28;20033;-71
2024/03/09 12:22:09;;;;;;;7.57;4.57;;;14.60;75.40;;;;;;5019859;28;20354;-72
2024/03/09 12:24:38;;;;;;;8.77;5.45;;;14.40;75.90;;;;;;4998320;28;20065;-71
2024/03/09 12:27:08;;;;;;;7.57;5.20;;;14.70;76.10;;;;;;5012504;28;20037;-72
2024/03/09 12:29:38;;;;;;;8.27;5.20;;;15.30;75.80;;;;;;5000676;28;20125;-74
2024/03/09 12:32:08;;;;;;;10.48;5.38;;;15.80;74.60;;;;;;4998800;28;20442;-72
2024/03/09 12:34:36;;;;;;;7.80;5.38;;;16.50;74.00;;;;;;5018198;28;20440;-71
2024/03/09 12:37:04;;;;;;;6.40;4.35;;;18.90;70.30;;;;;;5000432;28;20480;-73
2024/03/09 12:39:34;;;;;;;10.13;4.70;;;21.80;64.50;;;;;;5016741;28;20041;-71
2024/03/09 12:42:03;;;;;;;9.07;6.32;;;19.00;66.10;;;;;;5018128;28;20576;-73
2024/03/09 12:44:37;;;;;;;9.82;5.05;;;17.70;69.50;;;;;;4998859;28;20622;-74
2024/03/09 12:47:06;;;;;;;7.18;5.10;;;17.10;72.20;;;;;;5012593;28;20163;-73
2024/03/09 12:49:34;;;;;;;6.85;5.20;;;17.70;73.00;;;;;;4998346;28;20042;-73
2024/03/09 12:52:02;;;;;;;8.27;5.72;;;19.60;66.80;;;;;;5010264;28;20071;-73